createdAt,value
2022-10-19T00:00:21.900Z,79.49
2022-10-19T00:01:44.630Z,79.54
2022-10-19T00:02:47.443Z,79.56
2022-10-19T00:03:53.499Z,79.49
2022-10-19T00:04:56.335Z,79.60
2022-10-19T00:05:59.244Z,79.50
2022-10-19T00:07:02.110Z,79.53
2022-10-19T00:08:05.002Z,79.59
2022-10-19T00:09:09.261Z,79.56
2022-10-19T00:10:12.364Z,79.68
2022-10-19T00:11:15.334Z,79.63
2022-10-19T00:12:18.168Z,79.58
2022-10-19T00:13:20.982Z,79.66
2022-10-19T00:14:23.973Z,79.81
2022-10-19T00:15:27.029Z,79.59
2022-10-19T00:16:31.756Z,79.73
2022-10-19T00:17:34.846Z,79.81
2022-10-19T00:18:37.854Z,79.64
2022-10-19T00:19:40.932Z,79.75
2022-10-19T00:20:43.767Z,79.84
2022-10-19T00:21:46.708Z,79.90
2022-10-19T00:22:50.793Z,79.85
2022-10-19T00:23:53.578Z,79.87
2022-10-19T00:24:57.781Z,80.09
2022-10-19T00:26:00.639Z,80.03
2022-10-19T00:27:03.570Z,80.19
2022-10-19T00:28:07.264Z,80.04
2022-10-19T00:29:11.074Z,80.26
2022-10-19T00:30:14.188Z,80.22
2022-10-19T00:31:17.832Z,80.03
2022-10-19T00:32:20.777Z,80.22
2022-10-19T00:33:23.698Z,80.13
2022-10-19T00:34:26.550Z,80.04
2022-10-19T00:35:29.404Z,79.97
2022-10-19T00:36:34.014Z,80.02
2022-10-19T00:37:37.020Z,80.13
2022-10-19T00:38:41.353Z,80.07
2022-10-19T00:39:44.218Z,80.08
2022-10-19T00:40:47.695Z,80.04
2022-10-19T00:41:50.533Z,80.17
2022-10-19T00:42:57.024Z,80.17
2022-10-19T00:44:02.768Z,80.03
2022-10-19T00:45:11.073Z,80.08
2022-10-19T00:46:13.946Z,80.16
2022-10-19T00:47:19.071Z,80.19
2022-10-19T00:48:27.645Z,80.16
2022-10-19T00:49:33.411Z,80.28
2022-10-19T00:50:36.583Z,80.10
2022-10-19T00:51:45.180Z,80.14
2022-10-19T00:52:48.013Z,80.08
2022-10-19T00:53:51.096Z,80.05
2022-10-19T00:54:55.047Z,80.14
2022-10-19T00:55:58.769Z,80.07
2022-10-19T00:57:03.487Z,79.99
2022-10-19T00:58:06.394Z,79.94
2022-10-19T00:59:10.428Z,80.05
2022-10-19T01:00:13.485Z,79.99
2022-10-19T01:01:17.639Z,79.86
2022-10-19T01:02:20.507Z,79.94
2022-10-19T01:03:23.492Z,80.13
2022-10-19T01:04:27.163Z,79.84
2022-10-19T01:05:30.792Z,79.98
2022-10-19T01:06:34.094Z,79.94
2022-10-19T01:07:37.245Z,79.96
2022-10-19T01:08:40.283Z,80.17
2022-10-19T01:09:43.158Z,80.07
2022-10-19T01:10:57.371Z,79.99
2022-10-19T01:12:24.348Z,80.05
2022-10-19T01:13:33.099Z,80.07
2022-10-19T01:14:51.394Z,80.06
2022-10-19T01:16:00.933Z,80.09
2022-10-19T01:17:03.757Z,80.02
2022-10-19T01:18:19.760Z,80.17
2022-10-19T01:19:34.518Z,80.05
2022-10-19T01:20:55.952Z,80.25
2022-10-19T01:22:08.978Z,80.19
2022-10-19T01:23:37.954Z,80.12
2022-10-19T01:24:59.512Z,80.31
2022-10-19T01:26:08.612Z,80.20
2022-10-19T01:27:23.598Z,80.27
2022-10-19T01:28:44.827Z,80.23
2022-10-19T01:30:04.926Z,80.29
2022-10-19T01:31:16.231Z,80.44
2022-10-19T01:32:35.496Z,80.22
2022-10-19T01:33:41.146Z,80.31
2022-10-19T01:34:51.450Z,80.65
2022-10-19T01:35:54.412Z,80.60
2022-10-19T01:37:02.877Z,80.62
2022-10-19T01:38:14.893Z,80.90
2022-10-19T01:39:23.274Z,80.80
2022-10-19T01:40:52.195Z,80.96
2022-10-19T01:42:14.716Z,81.12
2022-10-19T01:43:20.833Z,81.29
2022-10-19T01:44:29.418Z,81.33
2022-10-19T01:45:52.490Z,81.44
2022-10-19T01:46:57.979Z,81.54
2022-10-19T01:48:07.298Z,81.50
2022-10-19T01:49:20.510Z,81.62
2022-10-19T01:50:37.278Z,81.72
2022-10-19T01:51:42.950Z,81.78
2022-10-19T01:52:46.745Z,81.77
2022-10-19T01:53:51.678Z,82.02
2022-10-19T01:54:57.658Z,82.02
2022-10-19T01:56:02.011Z,82.13
2022-10-19T01:57:06.674Z,82.24
2022-10-19T01:58:14.066Z,82.40
2022-10-19T01:59:18.902Z,82.49
2022-10-19T02:00:22.955Z,82.91
2022-10-19T02:01:28.080Z,82.98
2022-10-19T02:02:31.223Z,83.27
2022-10-19T02:03:35.234Z,83.76
2022-10-19T02:04:38.316Z,83.69
2022-10-19T02:05:41.966Z,83.76
2022-10-19T02:06:44.785Z,84.55
2022-10-19T02:07:50.636Z,84.12
2022-10-19T02:08:54.078Z,84.23
2022-10-19T02:09:56.922Z,84.79
2022-10-19T02:11:00.826Z,84.65
2022-10-19T02:12:06.641Z,85.50
2022-10-19T02:13:10.050Z,85.61
2022-10-19T02:14:14.640Z,85.84
2022-10-19T02:15:19.205Z,86.17
2022-10-19T02:16:26.077Z,86.49
2022-10-19T02:17:30.901Z,86.34
2022-10-19T02:18:36.523Z,86.75
2022-10-19T02:19:39.710Z,86.93
2022-10-19T02:20:42.570Z,87.25
2022-10-19T02:21:45.665Z,87.31
2022-10-19T02:22:48.438Z,87.26
2022-10-19T02:23:59.032Z,87.40
2022-10-19T02:25:01.986Z,88.05
2022-10-19T02:26:05.280Z,88.15
2022-10-19T02:27:08.538Z,88.64
2022-10-19T02:28:11.611Z,89.36
2022-10-19T02:29:15.140Z,88.69
2022-10-19T02:30:19.962Z,88.78
2022-10-19T02:31:39.609Z,89.42
2022-10-19T02:32:43.542Z,89.93
2022-10-19T02:33:46.587Z,89.61
2022-10-19T02:34:49.758Z,90.25
2022-10-19T02:35:52.588Z,89.55
2022-10-19T02:36:55.756Z,90.08
2022-10-19T02:38:00.239Z,90.61
2022-10-19T02:39:03.567Z,89.93
2022-10-19T02:40:06.580Z,89.88
2022-10-19T02:41:15.343Z,89.98
2022-10-19T02:42:23.055Z,90.00
2022-10-19T02:43:26.981Z,90.79
2022-10-19T02:44:33.939Z,90.22
2022-10-19T02:45:39.322Z,90.33
2022-10-19T02:46:46.111Z,90.40
2022-10-19T02:47:50.983Z,90.63
2022-10-19T02:48:55.286Z,90.23
2022-10-19T02:49:58.366Z,90.61
2022-10-19T02:51:01.305Z,90.76
2022-10-19T02:52:08.703Z,91.38
2022-10-19T02:53:11.588Z,91.23
2022-10-19T02:54:14.587Z,90.89
2022-10-19T02:55:17.510Z,91.06
2022-10-19T02:56:20.303Z,91.32
2022-10-19T02:57:24.556Z,91.70
2022-10-19T02:58:27.362Z,91.11
2022-10-19T02:59:30.393Z,91.85
2022-10-19T03:00:33.528Z,91.55
2022-10-19T03:01:36.457Z,91.34
2022-10-19T03:02:39.439Z,91.80
2022-10-19T03:03:42.265Z,92.07
2022-10-19T03:05:55.203Z,92.40
2022-10-19T03:06:58.055Z,92.51
2022-10-19T03:08:00.834Z,92.18
2022-10-19T03:09:03.857Z,92.37
2022-10-19T03:10:06.993Z,92.82
2022-10-19T03:11:10.281Z,92.67
2022-10-19T03:12:13.947Z,92.84
2022-10-19T03:13:16.740Z,93.41
2022-10-19T03:14:19.554Z,92.83
2022-10-19T03:15:24.727Z,93.23
2022-10-19T03:16:27.706Z,94.10
2022-10-19T03:17:30.717Z,93.08
2022-10-19T03:18:33.632Z,93.14
2022-10-19T03:19:41.379Z,93.67
2022-10-19T03:20:44.645Z,93.42
2022-10-19T03:21:47.640Z,93.30
2022-10-19T03:22:50.555Z,93.02
2022-10-19T03:23:53.465Z,93.67
2022-10-19T03:24:56.287Z,94.80
2022-10-19T03:25:59.198Z,94.13
2022-10-19T03:27:02.101Z,94.11
2022-10-19T03:28:04.908Z,94.22
2022-10-19T03:29:07.830Z,94.47
2022-10-19T03:30:10.973Z,94.98
2022-10-19T03:31:14.167Z,95.59
2022-10-19T03:32:17.392Z,95.20
2022-10-19T03:33:20.359Z,94.96
2022-10-19T03:34:23.371Z,95.57
2022-10-19T03:35:26.179Z,95.02
2022-10-19T03:36:33.154Z,95.09
2022-10-19T03:37:36.405Z,95.42
2022-10-19T03:38:39.515Z,95.22
2022-10-19T03:39:42.327Z,94.90
2022-10-19T03:40:45.105Z,95.14
2022-10-19T03:41:47.968Z,94.78
2022-10-19T03:42:50.901Z,94.73
2022-10-19T03:43:54.065Z,94.84
2022-10-19T03:44:56.960Z,96.41
2022-10-19T03:45:59.781Z,96.10
2022-10-19T03:47:02.642Z,95.48
2022-10-19T03:48:05.759Z,95.29
2022-10-19T03:49:09.315Z,96.06
2022-10-19T03:50:14.182Z,95.39
2022-10-19T03:51:17.975Z,96.93
2022-10-19T03:52:20.992Z,96.29
2022-10-19T03:53:23.980Z,95.79
2022-10-19T03:54:27.580Z,96.51
2022-10-19T03:55:30.488Z,96.13
2022-10-19T03:56:34.614Z,96.62
2022-10-19T03:57:37.699Z,95.91
2022-10-19T03:58:41.624Z,96.11
2022-10-19T03:59:44.631Z,96.26
2022-10-19T04:00:47.458Z,95.94
2022-10-19T04:01:50.291Z,95.90
2022-10-19T04:02:53.089Z,96.12
2022-10-19T04:03:57.748Z,95.85
2022-10-19T04:05:00.644Z,96.03
2022-10-19T04:06:05.085Z,95.77
2022-10-19T04:07:07.896Z,95.75
2022-10-19T04:08:10.786Z,96.68
2022-10-19T04:09:15.451Z,96.08
2022-10-19T04:10:18.431Z,96.16
2022-10-19T04:11:22.686Z,96.50
2022-10-19T04:12:25.491Z,96.52
2022-10-19T04:13:28.680Z,97.17
2022-10-19T04:14:33.154Z,97.27
2022-10-19T04:15:42.129Z,96.67
2022-10-19T04:16:44.904Z,96.52
2022-10-19T04:17:48.694Z,96.25
2022-10-19T04:18:51.770Z,96.11
2022-10-19T04:19:54.726Z,96.58
2022-10-19T04:20:58.290Z,96.91
2022-10-19T04:22:01.209Z,96.63
2022-10-19T04:23:04.016Z,96.63
2022-10-19T04:24:08.454Z,97.82
2022-10-19T04:25:12.387Z,96.99
2022-10-19T04:26:15.255Z,96.89
2022-10-19T04:27:18.383Z,96.72
2022-10-19T04:28:21.290Z,97.35
2022-10-19T04:29:28.000Z,97.28
2022-10-19T04:30:33.431Z,97.40
2022-10-19T04:31:36.222Z,97.78
2022-10-19T04:32:39.048Z,97.97
2022-10-19T04:33:42.009Z,98.34
2022-10-19T04:34:44.907Z,98.31
2022-10-19T04:35:47.883Z,98.24
2022-10-19T04:36:50.668Z,98.86
2022-10-19T04:37:53.516Z,98.16
2022-10-19T04:38:56.304Z,99.44
2022-10-19T04:39:59.093Z,99.34
2022-10-19T04:41:06.323Z,99.03
2022-10-19T04:42:09.228Z,98.87
2022-10-19T04:43:12.006Z,99.48
2022-10-19T04:44:15.539Z,99.17
2022-10-19T04:45:18.653Z,98.85
2022-10-19T04:46:21.639Z,99.15
2022-10-19T04:47:24.533Z,99.26
2022-10-19T04:48:27.383Z,99.51
2022-10-19T04:49:30.265Z,98.59
2022-10-19T04:50:33.103Z,98.56
2022-10-19T04:51:36.030Z,98.64
2022-10-19T04:52:39.424Z,98.85
2022-10-19T04:53:43.379Z,98.68
2022-10-19T04:54:46.391Z,98.63
2022-10-19T04:55:49.224Z,98.81
2022-10-19T04:56:53.859Z,99.04
2022-10-19T04:57:56.750Z,98.62
2022-10-19T04:59:00.298Z,99.16
2022-10-19T05:00:04.209Z,98.90
2022-10-19T05:01:11.279Z,99.82
2022-10-19T05:02:14.202Z,99.88
2022-10-19T05:03:17.040Z,99.69
2022-10-19T05:04:19.834Z,99.81
2022-10-19T05:05:24.358Z,99.67
2022-10-19T05:06:27.637Z,99.37
2022-10-19T05:07:30.676Z,99.69
2022-10-19T05:08:33.737Z,99.87
2022-10-19T05:09:37.282Z,99.62
2022-10-19T05:10:43.108Z,100.00
2022-10-19T05:11:51.437Z,99.97
2022-10-19T05:12:54.434Z,99.90
2022-10-19T05:13:57.467Z,99.88
2022-10-19T05:15:00.269Z,100.00
2022-10-19T05:16:04.574Z,99.91
2022-10-19T05:17:07.493Z,99.94
2022-10-19T05:18:10.522Z,99.93
2022-10-19T05:19:14.096Z,99.83
2022-10-19T05:20:16.946Z,100.00
2022-10-19T05:21:21.179Z,99.94
2022-10-19T05:22:25.196Z,99.95
2022-10-19T05:23:28.506Z,99.91
2022-10-19T05:24:32.584Z,100.00
2022-10-19T05:25:35.442Z,99.98
2022-10-19T05:26:38.265Z,100.00
2022-10-19T05:27:41.027Z,100.00
2022-10-19T05:28:47.841Z,99.98
2022-10-19T05:29:50.793Z,100.00
2022-10-19T05:30:53.608Z,99.97
2022-10-19T05:31:56.452Z,100.00
2022-10-19T05:32:59.337Z,100.00
2022-10-19T05:34:03.957Z,100.00
2022-10-19T05:35:07.285Z,100.00
2022-10-19T05:36:20.720Z,99.99
2022-10-19T05:37:23.565Z,100.00
2022-10-19T05:38:26.614Z,99.98
2022-10-19T05:39:29.567Z,100.00
2022-10-19T05:40:32.336Z,99.96
2022-10-19T05:41:35.161Z,99.93
2022-10-19T05:42:38.003Z,99.92
2022-10-19T05:43:41.843Z,99.95
2022-10-19T05:44:54.739Z,99.99
2022-10-19T05:45:57.743Z,100.00
2022-10-19T05:47:00.650Z,99.91
2022-10-19T05:48:03.502Z,99.78
2022-10-19T05:49:06.348Z,99.75
2022-10-19T05:50:09.428Z,99.97
2022-10-19T05:51:13.309Z,99.94
2022-10-19T05:52:17.781Z,99.98
2022-10-19T05:53:20.785Z,99.88
2022-10-19T05:54:26.334Z,99.73
2022-10-19T05:55:34.076Z,99.93
2022-10-19T05:56:37.155Z,99.87
2022-10-19T05:57:39.916Z,99.88
2022-10-19T05:58:42.781Z,99.81
2022-10-19T05:59:45.593Z,99.87
2022-10-19T06:00:52.822Z,99.82
2022-10-19T06:01:55.720Z,99.84
2022-10-19T06:02:59.254Z,99.99
2022-10-19T06:04:02.958Z,99.85
2022-10-19T06:05:06.093Z,99.84
2022-10-19T06:06:09.440Z,99.90
2022-10-19T06:07:12.195Z,99.73
2022-10-19T06:08:15.561Z,99.90
2022-10-19T06:09:18.391Z,99.81
2022-10-19T06:10:21.523Z,99.56
2022-10-19T06:11:31.459Z,99.74
2022-10-19T06:12:34.264Z,99.79
2022-10-19T06:13:37.638Z,99.42
2022-10-19T06:14:40.749Z,99.74
2022-10-19T06:15:43.731Z,99.59
2022-10-19T06:16:46.806Z,99.22
2022-10-19T06:17:49.680Z,99.37
2022-10-19T06:18:52.953Z,99.87
2022-10-19T06:19:55.780Z,99.03
2022-10-19T06:21:05.948Z,99.13
2022-10-19T06:22:09.025Z,99.37
2022-10-19T06:23:11.992Z,99.34
2022-10-19T06:24:14.929Z,98.90
2022-10-19T06:25:20.203Z,98.63
2022-10-19T06:26:23.816Z,98.45
2022-10-19T06:27:26.788Z,98.08
2022-10-19T06:28:29.592Z,98.01
2022-10-19T06:29:32.784Z,98.33
2022-10-19T06:30:40.581Z,97.85
2022-10-19T06:31:48.260Z,97.66
2022-10-19T06:32:51.766Z,97.50
2022-10-19T06:33:55.764Z,97.56
2022-10-19T06:34:58.758Z,97.52
2022-10-19T06:36:05.480Z,97.66
2022-10-19T06:37:08.226Z,97.43
2022-10-19T06:38:13.784Z,97.33
2022-10-19T06:39:16.771Z,97.14
2022-10-19T06:40:19.604Z,97.37
2022-10-19T06:41:22.701Z,96.61
2022-10-19T06:42:25.458Z,96.78
2022-10-19T06:43:28.688Z,96.99
2022-10-19T06:44:31.466Z,96.62
2022-10-19T06:45:36.031Z,96.76
2022-10-19T06:46:38.986Z,97.03
2022-10-19T06:47:41.836Z,96.67
2022-10-19T06:48:44.906Z,96.83
2022-10-19T06:49:47.835Z,96.80
2022-10-19T06:50:57.306Z,96.87
2022-10-19T06:52:00.054Z,96.73
2022-10-19T06:53:02.948Z,96.44
2022-10-19T06:54:05.898Z,96.28
2022-10-19T06:55:08.823Z,96.88
2022-10-19T06:56:11.869Z,97.21
2022-10-19T06:57:14.682Z,97.31
2022-10-19T06:58:17.679Z,97.30
2022-10-19T06:59:20.770Z,96.81
2022-10-19T07:00:23.586Z,96.03
2022-10-19T07:01:26.762Z,96.12
2022-10-19T07:02:29.574Z,96.57
2022-10-19T07:03:32.583Z,96.25
2022-10-19T07:04:35.591Z,95.80
2022-10-19T07:05:38.442Z,95.16
2022-10-19T07:06:41.317Z,95.70
2022-10-19T07:07:45.125Z,95.94
2022-10-19T07:08:48.362Z,95.84
2022-10-19T07:09:51.926Z,96.02
2022-10-19T07:10:56.500Z,96.22
2022-10-19T07:11:59.316Z,96.22
2022-10-19T07:13:02.191Z,96.20
2022-10-19T07:14:05.008Z,96.57
2022-10-19T07:15:08.739Z,96.47
2022-10-19T07:16:16.118Z,96.28
2022-10-19T07:17:22.562Z,96.14
2022-10-19T07:18:26.108Z,96.31
2022-10-19T07:19:28.977Z,96.07
2022-10-19T07:20:31.904Z,96.29
2022-10-19T07:21:40.819Z,96.30
2022-10-19T07:22:43.734Z,95.97
2022-10-19T07:23:47.471Z,96.13
2022-10-19T07:24:52.187Z,95.71
2022-10-19T07:26:00.468Z,95.62
2022-10-19T07:27:03.676Z,95.61
2022-10-19T07:28:06.446Z,95.75
2022-10-19T07:29:09.698Z,95.67
2022-10-19T07:30:12.726Z,95.24
2022-10-19T07:31:20.356Z,95.88
2022-10-19T07:32:23.111Z,95.82
2022-10-19T07:33:26.051Z,95.83
2022-10-19T07:34:29.166Z,96.18
2022-10-19T07:35:32.460Z,95.70
2022-10-19T07:36:35.955Z,95.63
2022-10-19T07:37:38.887Z,95.64
2022-10-19T07:38:41.754Z,94.88
2022-10-19T07:39:44.607Z,93.75
2022-10-19T07:40:47.649Z,94.19
2022-10-19T07:41:50.678Z,93.41
2022-10-19T07:42:53.830Z,94.03
2022-10-19T07:43:57.888Z,93.56
2022-10-19T07:45:00.837Z,93.42
2022-10-19T07:46:05.553Z,92.38
2022-10-19T07:47:08.523Z,92.61
2022-10-19T07:48:11.363Z,92.79
2022-10-19T07:49:16.413Z,92.46
2022-10-19T07:50:19.345Z,91.97
2022-10-19T07:51:22.480Z,91.23
2022-10-19T07:52:25.502Z,92.16
2022-10-19T07:53:28.398Z,92.24
2022-10-19T07:54:31.209Z,92.17
2022-10-19T07:55:34.505Z,90.71
2022-10-19T07:56:37.525Z,90.63
2022-10-19T07:57:42.583Z,91.15
2022-10-19T07:58:48.038Z,90.09
2022-10-19T07:59:50.908Z,91.08
2022-10-19T08:00:59.392Z,90.42
2022-10-19T08:02:04.564Z,91.26
2022-10-19T08:04:55.968Z,92.04
2022-10-19T08:05:53.768Z,90.59
2022-10-19T08:06:56.772Z,90.99
2022-10-19T08:07:59.658Z,91.21
2022-10-19T08:09:02.907Z,91.78
2022-10-19T08:10:06.008Z,91.68
2022-10-19T08:11:09.722Z,91.07
2022-10-19T08:12:15.324Z,90.70
2022-10-19T08:13:18.503Z,90.54
2022-10-19T08:14:21.473Z,90.45
2022-10-19T08:15:26.190Z,89.71
2022-10-19T08:16:29.027Z,90.47
2022-10-19T08:17:31.916Z,90.55
2022-10-19T08:18:36.139Z,90.41
2022-10-19T08:19:43.398Z,90.97
2022-10-19T08:20:46.667Z,91.01
2022-10-19T08:21:49.789Z,91.46
2022-10-19T08:22:56.529Z,91.13
2022-10-19T08:24:01.949Z,91.35
2022-10-19T08:25:06.066Z,91.11
2022-10-19T08:26:09.144Z,90.78
2022-10-19T08:27:12.126Z,91.37
2022-10-19T08:28:15.067Z,91.03
2022-10-19T08:29:19.852Z,91.09
2022-10-19T08:30:22.806Z,90.95
2022-10-19T08:31:25.631Z,91.08
2022-10-19T08:32:28.442Z,90.86
2022-10-19T08:33:31.228Z,91.13
2022-10-19T08:34:34.720Z,91.28
2022-10-19T08:35:37.617Z,91.49
2022-10-19T08:37:48.856Z,91.68
2022-10-19T08:38:52.485Z,91.76
2022-10-19T08:39:55.436Z,91.58
2022-10-19T08:40:58.952Z,91.20
2022-10-19T08:42:03.268Z,91.65
2022-10-19T08:43:30.719Z,92.00
2022-10-19T08:44:36.756Z,90.85
2022-10-19T08:46:06.169Z,91.29
2022-10-19T08:47:21.077Z,91.48
2022-10-19T08:48:30.013Z,91.39
2022-10-19T08:49:33.121Z,91.26
2022-10-19T08:50:42.445Z,91.00
2022-10-19T08:51:48.487Z,91.55
2022-10-19T08:52:58.358Z,91.43
2022-10-19T08:54:04.895Z,91.95
2022-10-19T08:55:16.463Z,92.07
2022-10-19T08:56:49.839Z,91.76
2022-10-19T08:57:59.490Z,91.85
2022-10-19T08:59:05.330Z,91.53
2022-10-19T09:00:17.084Z,91.36
2022-10-19T09:01:36.885Z,90.56
2022-10-19T09:03:04.315Z,90.86
2022-10-19T09:04:10.288Z,89.61
2022-10-19T09:05:24.114Z,90.44
2022-10-19T09:06:32.214Z,90.48
2022-10-19T09:07:40.170Z,90.22
2022-10-19T09:08:43.231Z,89.83
2022-10-19T09:09:49.349Z,90.34
2022-10-19T09:10:54.037Z,90.02
2022-10-19T09:12:01.708Z,89.74
2022-10-19T09:13:41.281Z,89.41
2022-10-19T09:14:50.202Z,88.09
2022-10-19T09:15:55.286Z,86.56
2022-10-19T09:17:01.517Z,87.59
2022-10-19T09:18:06.079Z,86.86
2022-10-19T09:19:25.528Z,87.37
2022-10-19T09:20:38.470Z,87.21
2022-10-19T09:21:47.296Z,86.60
2022-10-19T09:22:54.986Z,86.34
2022-10-19T09:24:02.758Z,86.77
2022-10-19T09:25:13.602Z,86.18
2022-10-19T09:26:18.132Z,86.34
2022-10-19T09:27:22.872Z,85.22
2022-10-19T09:28:38.811Z,83.51
2022-10-19T09:29:50.060Z,82.62
2022-10-19T09:30:55.027Z,83.31
2022-10-19T09:31:59.808Z,83.06
2022-10-19T09:33:02.753Z,82.10
2022-10-19T09:34:14.124Z,82.85
2022-10-19T09:35:28.831Z,82.46
2022-10-19T09:36:50.174Z,82.89
2022-10-19T09:37:54.773Z,82.03
2022-10-19T09:38:57.660Z,82.54
2022-10-19T09:40:00.580Z,81.74
2022-10-19T09:41:20.364Z,80.89
2022-10-19T09:42:25.785Z,81.03
2022-10-19T09:43:28.984Z,80.89
2022-10-19T09:44:32.455Z,79.29
2022-10-19T09:45:41.100Z,76.38
2022-10-19T09:46:55.972Z,75.42
2022-10-19T09:48:07.131Z,75.53
2022-10-19T09:49:13.722Z,73.41
2022-10-19T09:50:16.587Z,74.98
2022-10-19T09:51:20.029Z,75.97
2022-10-19T09:52:32.831Z,77.12
2022-10-19T09:53:35.755Z,76.99
2022-10-19T09:54:39.473Z,76.44
2022-10-19T09:55:43.552Z,74.66
2022-10-19T09:56:52.830Z,72.09
2022-10-19T09:58:00.791Z,72.56
2022-10-19T09:59:03.796Z,72.60
2022-10-19T10:00:06.865Z,72.52
2022-10-19T10:01:39.979Z,71.55
2022-10-19T10:02:50.890Z,71.38
2022-10-19T10:04:04.240Z,71.30
2022-10-19T10:05:13.451Z,70.78
2022-10-19T10:06:17.490Z,71.07
2022-10-19T10:07:20.343Z,71.90
2022-10-19T10:08:25.691Z,70.40
2022-10-19T10:09:29.173Z,71.18
2022-10-19T10:10:39.234Z,71.22
2022-10-19T10:11:43.559Z,71.28
2022-10-19T10:12:47.013Z,71.53
2022-10-19T10:13:51.868Z,70.04
2022-10-19T10:14:56.360Z,71.01
2022-10-19T10:16:01.259Z,71.38
2022-10-19T10:17:06.902Z,71.41
2022-10-19T10:18:18.884Z,71.45
2022-10-19T10:19:24.254Z,72.51
2022-10-19T10:20:32.533Z,72.41
2022-10-19T10:21:52.749Z,71.55
2022-10-19T10:23:01.328Z,71.52
2022-10-19T10:24:06.129Z,72.36
2022-10-19T10:25:18.237Z,71.95
2022-10-19T10:26:21.200Z,71.59
2022-10-19T10:27:30.172Z,71.59
2022-10-19T10:28:33.207Z,72.10
2022-10-19T10:29:37.486Z,71.96
2022-10-19T10:30:40.800Z,72.11
2022-10-19T10:31:43.966Z,72.18
2022-10-19T10:32:51.470Z,71.81
2022-10-19T10:33:56.665Z,70.35
2022-10-19T10:35:01.314Z,71.39
2022-10-19T10:36:07.430Z,70.49
2022-10-19T10:37:24.464Z,69.58
2022-10-19T10:38:53.918Z,69.95
2022-10-19T10:40:00.484Z,70.67
2022-10-19T10:41:16.069Z,70.94
2022-10-19T10:42:22.352Z,68.50
2022-10-19T10:43:31.302Z,69.66
2022-10-19T10:44:36.672Z,69.40
2022-10-19T10:45:49.658Z,69.61
2022-10-19T10:46:54.979Z,68.43
2022-10-19T10:47:59.791Z,69.48
2022-10-19T10:49:04.252Z,68.41
2022-10-19T10:50:07.586Z,68.92
2022-10-19T10:51:20.744Z,69.27
2022-10-19T10:52:25.347Z,69.13
2022-10-19T10:53:31.701Z,68.57
2022-10-19T10:54:34.964Z,68.57
2022-10-19T10:55:37.858Z,68.55
2022-10-19T10:56:42.326Z,67.65
2022-10-19T10:57:46.861Z,67.75
2022-10-19T10:59:25.010Z,68.79
2022-10-19T11:00:28.897Z,68.29
2022-10-19T11:01:42.058Z,69.49
2022-10-19T11:03:04.155Z,67.90
2022-10-19T11:04:19.313Z,68.59
2022-10-19T11:05:40.656Z,67.57
2022-10-19T11:06:55.033Z,67.65
2022-10-19T11:08:12.888Z,67.68
2022-10-19T11:09:44.987Z,68.02
2022-10-19T11:11:06.110Z,66.83
2022-10-19T11:12:11.520Z,66.74
2022-10-19T11:13:23.618Z,66.78
2022-10-19T11:14:46.713Z,66.88
2022-10-19T11:15:55.574Z,65.93
2022-10-19T11:17:00.974Z,65.58
2022-10-19T11:18:10.793Z,66.37
2022-10-19T11:19:23.396Z,65.84
2022-10-19T11:20:30.026Z,65.29
2022-10-19T11:21:41.059Z,65.14
2022-10-19T11:22:51.484Z,65.71
2022-10-19T11:24:00.535Z,65.32
2022-10-19T11:25:22.048Z,63.91
2022-10-19T11:26:30.788Z,65.11
2022-10-19T11:27:36.845Z,65.19
2022-10-19T11:28:58.664Z,65.15
2022-10-19T11:30:07.868Z,65.20
2022-10-19T11:31:33.210Z,65.93
2022-10-19T11:32:39.165Z,65.53
2022-10-19T11:34:57.375Z,64.27
2022-10-19T11:36:08.094Z,64.52
2022-10-19T11:37:11.015Z,64.07
2022-10-19T11:38:32.491Z,63.08
2022-10-19T11:39:53.854Z,62.57
2022-10-19T11:41:24.117Z,62.50
2022-10-19T11:42:54.369Z,62.52
2022-10-19T11:44:12.667Z,62.34
2022-10-19T11:45:15.488Z,62.38
2022-10-19T11:46:18.528Z,62.47
2022-10-19T11:47:21.339Z,62.64
2022-10-19T11:48:51.682Z,61.77
2022-10-19T11:50:11.630Z,61.38
2022-10-19T11:51:33.104Z,61.21
2022-10-19T11:52:46.478Z,61.88
2022-10-19T11:53:49.449Z,62.99
2022-10-19T11:55:04.448Z,62.63
2022-10-19T11:56:16.001Z,62.81
2022-10-19T11:57:18.846Z,63.46
2022-10-19T11:58:24.554Z,63.83
2022-10-19T11:59:42.840Z,64.33
2022-10-19T12:00:54.694Z,63.81
2022-10-19T12:02:05.027Z,63.98
2022-10-19T12:03:10.765Z,64.63
2022-10-19T12:04:32.415Z,64.79
2022-10-19T12:05:35.380Z,65.27
2022-10-19T12:06:50.210Z,65.44
2022-10-19T12:08:11.849Z,65.93
2022-10-19T12:09:33.535Z,66.41
2022-10-19T12:11:02.051Z,66.65
2022-10-19T12:12:22.560Z,66.40
2022-10-19T12:13:29.824Z,66.29
2022-10-19T12:14:35.806Z,66.04
2022-10-19T12:15:43.923Z,65.67
2022-10-19T12:16:52.125Z,64.58
2022-10-19T12:17:57.289Z,64.88
2022-10-19T12:19:01.083Z,64.85
2022-10-19T12:20:07.234Z,63.08
2022-10-19T12:21:26.082Z,62.38
2022-10-19T12:22:30.208Z,62.29
2022-10-19T12:23:34.601Z,62.85
2022-10-19T12:24:37.432Z,62.20
2022-10-19T12:25:43.350Z,62.78
2022-10-19T12:26:47.087Z,62.66
2022-10-19T12:27:51.036Z,62.53
2022-10-19T12:28:57.268Z,63.03
2022-10-19T12:30:03.769Z,62.90
2022-10-19T12:31:07.316Z,62.33
2022-10-19T12:32:12.686Z,63.00
2022-10-19T12:33:23.757Z,62.93
2022-10-19T12:34:29.344Z,62.18
2022-10-19T12:35:47.302Z,61.40
2022-10-19T12:36:54.981Z,62.00
2022-10-19T12:38:03.853Z,62.78
2022-10-19T12:39:12.411Z,62.02
2022-10-19T12:40:27.231Z,61.58
2022-10-19T12:41:52.278Z,61.03
2022-10-19T12:43:14.098Z,62.19
2022-10-19T12:44:25.891Z,60.31
2022-10-19T12:45:55.556Z,59.25
2022-10-19T12:47:08.959Z,58.81
2022-10-19T12:48:15.977Z,55.86
2022-10-19T12:49:31.172Z,55.15
2022-10-19T12:50:49.130Z,55.48
2022-10-19T12:51:52.750Z,56.22
2022-10-19T12:52:55.692Z,56.50
2022-10-19T12:54:08.266Z,55.93
2022-10-19T12:55:12.942Z,56.24
2022-10-19T12:56:20.695Z,57.01
2022-10-19T12:57:27.283Z,56.67
2022-10-19T12:58:34.556Z,57.31
2022-10-19T12:59:38.153Z,57.43
2022-10-19T13:00:41.265Z,56.47
2022-10-19T13:01:44.525Z,56.07
2022-10-19T13:02:56.734Z,56.53
2022-10-19T13:04:18.181Z,55.74
2022-10-19T13:05:22.498Z,55.67
2022-10-19T13:06:25.413Z,54.82
2022-10-19T13:07:30.704Z,55.08
2022-10-19T13:08:40.539Z,55.06
2022-10-19T13:09:45.805Z,54.10
2022-10-19T13:11:03.247Z,54.67
2022-10-19T13:12:21.787Z,53.86
2022-10-19T13:13:43.899Z,54.76
2022-10-19T13:14:51.246Z,54.79
2022-10-19T13:15:54.195Z,54.06
2022-10-19T13:17:00.188Z,54.23
2022-10-19T13:18:05.128Z,53.99
2022-10-19T13:19:13.659Z,53.04
2022-10-19T13:20:16.534Z,53.15
2022-10-19T13:21:39.652Z,53.66
2022-10-19T13:22:42.522Z,53.13
2022-10-19T13:23:46.693Z,51.94
2022-10-19T13:25:07.817Z,52.08
2022-10-19T13:26:24.282Z,51.88
2022-10-19T13:27:28.175Z,51.27
2022-10-19T13:28:34.246Z,51.81
2022-10-19T13:29:37.232Z,50.49
2022-10-19T13:30:41.871Z,51.57
2022-10-19T13:31:45.108Z,50.83
2022-10-19T13:32:47.981Z,50.37
2022-10-19T13:33:51.502Z,51.44
2022-10-19T13:34:54.755Z,50.91
2022-10-19T13:36:00.719Z,50.77
2022-10-19T13:37:04.019Z,50.68
2022-10-19T13:38:09.798Z,50.40
2022-10-19T13:39:13.712Z,50.59
2022-10-19T13:40:23.776Z,50.86
2022-10-19T13:41:44.028Z,50.70
2022-10-19T13:42:46.911Z,49.44
2022-10-19T13:43:52.616Z,50.37
2022-10-19T13:44:56.001Z,50.54
2022-10-19T13:46:07.695Z,50.58
2022-10-19T13:47:16.825Z,51.67
2022-10-19T13:48:24.971Z,52.76
2022-10-19T13:49:46.665Z,53.27
2022-10-19T13:50:54.520Z,54.10
2022-10-19T13:52:03.780Z,54.61
2022-10-19T13:53:17.593Z,55.51
2022-10-19T13:54:32.364Z,56.23
2022-10-19T13:55:38.051Z,56.43
2022-10-19T13:56:59.851Z,56.96
2022-10-19T13:58:05.647Z,57.47
2022-10-19T13:59:23.845Z,58.54
2022-10-19T14:00:45.119Z,58.78
2022-10-19T14:01:58.250Z,59.10
2022-10-19T14:03:02.188Z,59.72
2022-10-19T14:04:08.435Z,60.45
2022-10-19T14:05:11.256Z,60.54
2022-10-19T14:06:33.693Z,61.00
2022-10-19T14:07:43.536Z,61.19
2022-10-19T14:08:59.825Z,61.82
2022-10-19T14:10:17.485Z,61.78
2022-10-19T14:11:24.500Z,62.61
2022-10-19T14:12:29.316Z,62.81
2022-10-19T14:13:32.398Z,62.90
2022-10-19T14:14:39.475Z,63.00
2022-10-19T14:15:50.772Z,63.04
2022-10-19T14:16:59.675Z,62.85
2022-10-19T14:18:24.941Z,63.47
2022-10-19T14:19:31.905Z,64.12
2022-10-19T14:20:36.437Z,64.25
2022-10-19T14:21:39.427Z,64.18
2022-10-19T14:22:42.493Z,64.63
2022-10-19T14:23:48.411Z,64.57